Milford, New Hampshire
Current Conditions -  °F | °C
As of 8:51 PM on Wednesday 17 Dec 2014 (Local Time) from KASH Reporting Station
Overcast Overcast  
Wind Chill: 39°   Ceiling: 3800
Heat Index: 43°   Visibility: 10mi
Dew Point: 37°   Wind: 6mph
Humidity: 79%   Direction: 280°W
Pressure: 29.73"   Gusts: NA
Location:  42.84°N, 71.65°W
Report Text: KASH 180151Z 28005KT 10SM OVC038 06/03 A2973 RMK AO2 T00610027 SLP319
Loading
Personal Weather Stations






























Interactive Weather Map New forecast layout! Learn more

10-Day Weather Forecast

Advertisements
Track Severe Weather on mobile